Time;durP1;ratioP1;P1;durP2;ratioP2;P2;SDS_P1;SDS_P2;PMS_P1;PMS_P2;Temp;Humidity;BMP_temperature;BMP_pressure;BME280_temperature;BME280_humidity;BME280_pressure;Samples;Min_cycle;Max_cycle;Signal;HPM_P1;HPM_P2
2022/01/04 00:00:39;;;;;;;8.70;3.77;;;;;;;7.41;70.78;99770.23;125114;1102;103950;-81
2022/01/04 00:03:12;;;;;;;5.03;2.90;;;;;;;7.55;69.63;99744.63;125144;1102;103939;-83
2022/01/04 00:05:42;;;;;;;5.70;2.77;;;;;;;7.59;70.95;99733.47;124963;1102;104174;-83
2022/01/04 00:08:13;;;;;;;5.30;2.65;;;;;;;7.59;70.21;99740.39;124930;1102;104127;-81
2022/01/04 00:10:43;;;;;;;3.40;2.35;;;;;;;7.58;69.92;99759.52;125075;1102;103926;-80
2022/01/04 00:13:23;;;;;;;5.93;2.73;;;;;;;7.54;70.32;99764.64;125093;1102;103920;-80
2022/01/04 00:15:54;;;;;;;4.03;2.37;;;;;;;7.52;70.91;99758.45;125094;1102;104114;-81
2022/01/04 00:18:24;;;;;;;5.40;2.43;;;;;;;7.50;71.08;99751.42;125056;1102;103990;-81
2022/01/04 00:20:54;;;;;;;3.10;2.27;;;;;;;7.46;71.15;99773.89;125056;1102;103990;-81
2022/01/04 00:23:24;;;;;;;3.17;1.70;;;;;;;7.43;71.31;99776.39;125145;1102;104098;-82
2022/01/04 00:25:58;;;;;;;3.40;2.10;;;;;;;7.40;71.46;99759.73;125182;1102;104047;-82
2022/01/04 00:28:28;;;;;;;2.97;1.93;;;;;;;7.36;71.47;99774.41;125052;1102;104101;-82
2022/01/04 00:30:57;;;;;;;2.97;1.80;;;;;;;7.31;71.38;99769.02;125244;1102;103929;-82
2022/01/04 00:33:29;;;;;;;3.73;1.97;;;;;;;7.29;72.08;99772.39;125160;1102;103922;-81
2022/01/04 00:36:00;;;;;;;3.50;2.10;;;;;;;7.28;71.80;99775.84;125047;1102;105276;-82
2022/01/04 00:38:30;;;;;;;3.27;1.77;;;;;;;7.27;72.04;99768.84;125219;1102;103919;-82
2022/01/04 00:40:59;;;;;;;4.13;2.00;;;;;;;7.24;71.84;99782.66;125179;1102;103925;-81
2022/01/04 00:43:29;;;;;;;3.60;1.80;;;;;;;7.25;71.62;99760.08;125220;1102;104111;-82
2022/01/04 00:46:00;;;;;;;4.13;1.50;;;;;;;7.22;72.07;99780.84;125063;1102;104651;-82
2022/01/04 00:51:18;;;;;;;3.57;1.87;;;;;;;7.17;72.16;99778.94;125163;1102;103935;-81
2022/01/04 00:53:47;;;;;;;3.47;1.60;;;;;;;7.15;72.29;99782.30;125043;1102;103983;-82
2022/01/04 00:56:17;;;;;;;4.00;2.07;;;;;;;7.13;72.12;99779.64;125160;1103;104053;-80
2022/01/04 00:58:47;;;;;;;3.30;1.63;;;;;;;7.11;72.43;99783.92;125213;1102;103935;-81
2022/01/04 01:01:16;;;;;;;2.30;1.30;;;;;;;7.09;72.06;99777.77;125193;1102;104015;-82
2022/01/04 01:03:47;;;;;;;3.70;1.50;;;;;;;7.08;72.51;99791.62;125215;1102;103938;-82
2022/01/04 01:06:17;;;;;;;2.57;1.10;;;;;;;7.06;72.50;99790.69;125191;1102;103954;-81
2022/01/04 01:08:49;;;;;;;2.10;1.40;;;;;;;7.04;72.66;99791.45;125147;1102;104029;-82
2022/01/04 01:11:19;;;;;;;1.57;1.20;;;;;;;7.02;72.75;99779.23;124999;1102;103983;-82
2022/01/04 01:13:52;;;;;;;1.70;1.03;;;;;;;7.01;72.78;99793.13;125140;1102;104117;-82
2022/01/04 01:16:22;;;;;;;1.10;0.93;;;;;;;7.01;73.03;99786.99;125077;1102;103951;-81
2022/01/04 01:18:51;;;;;;;2.07;1.23;;;;;;;6.99;73.04;99791.27;125190;1102;103945;-81
2022/01/04 01:21:21;;;;;;;1.00;0.90;;;;;;;6.96;73.10;99797.25;125198;1102;103941;-81
2022/01/04 01:23:51;;;;;;;2.47;1.47;;;;;;;6.96;73.52;99785.94;124974;1102;104145;-82
2022/01/04 01:26:20;;;;;;;2.17;1.20;;;;;;;6.94;73.32;99791.09;124967;1105;103951;-82
2022/01/04 01:28:50;;;;;;;3.43;1.50;;;;;;;6.91;73.79;99801.41;125037;1105;103938;-82
2022/01/04 01:31:20;;;;;;;2.13;1.30;;;;;;;6.90;73.62;99807.44;125003;1105;103925;-81
2022/01/04 01:33:49;;;;;;;3.13;1.50;;;;;;;6.89;73.90;99804.77;124999;1105;104226;-81
2022/01/04 01:36:19;;;;;;;2.13;1.40;;;;;;;6.87;73.83;99793.41;124938;1105;105379;-82
2022/01/04 01:38:49;;;;;;;3.83;1.47;;;;;;;6.84;73.83;99797.68;125001;1105;103970;-81
2022/01/04 01:41:18;;;;;;;1.47;1.37;;;;;;;6.84;74.08;99791.58;124978;1105;104089;-82
2022/01/04 01:43:48;;;;;;;3.47;1.50;;;;;;;6.81;74.16;99794.95;125027;1105;104029;-83
2022/01/04 01:46:18;;;;;;;1.07;1.07;;;;;;;6.79;73.91;99795.70;125006;1103;103967;-82
2022/01/04 01:48:49;;;;;;;1.37;1.20;;;;;;;6.79;74.14;99796.62;124990;1105;104083;-81
2022/01/04 01:51:19;;;;;;;3.73;1.27;;;;;;;6.78;74.50;99797.44;125009;1105;104021;-81
2022/01/04 01:53:49;;;;;;;2.30;1.40;;;;;;;6.78;74.03;99809.59;124999;1106;103979;-80
2022/01/04 01:56:18;;;;;;;1.83;1.30;;;;;;;6.76;74.84;99814.75;124979;1105;104365;-82
2022/01/04 01:58:49;;;;;;;1.53;1.40;;;;;;;6.76;74.66;99817.36;125156;1102;102097;-81
2022/01/04 02:01:22;;;;;;;1.63;1.53;;;;;;;6.73;74.48;99809.41;125221;1102;104050;-81
2022/01/04 02:03:51;;;;;;;1.87;1.30;;;;;;;6.71;74.43;99821.47;125176;1102;103935;-82
2022/01/04 02:06:22;;;;;;;1.47;1.37;;;;;;;6.68;74.49;99823.95;124989;1102;103991;-82
2022/01/04 02:08:51;;;;;;;1.63;1.30;;;;;;;6.63;74.35;99817.67;124996;1102;103936;-82
2022/01/04 02:11:24;;;;;;;1.80;1.33;;;;;;;6.59;74.49;99818.37;125056;1102;104150;-83
2022/01/04 02:13:54;;;;;;;2.30;1.30;;;;;;;6.55;74.65;99827.80;125194;1102;104056;-82
2022/01/04 02:16:24;;;;;;;3.30;1.20;;;;;;;6.52;74.70;99835.48;125047;1102;103925;-82
2022/01/04 02:19:00;;;;;;;4.50;1.60;;;;;;;6.46;75.01;99823.08;125005;1102;112643;-81
2022/01/04 02:21:31;;;;;;;2.83;1.60;;;;;;;6.43;74.45;99827.28;125239;1102;103974;-81
2022/01/04 02:24:01;;;;;;;2.47;1.30;;;;;;;6.39;74.64;99825.36;125194;1102;103968;-81
2022/01/04 02:26:34;;;;;;;2.23;1.40;;;;;;;6.36;74.89;99822.62;125118;1102;104095;-82
2022/01/04 02:29:04;;;;;;;3.77;1.60;;;;;;;6.33;74.93;99828.63;125204;1102;104057;-82
2022/01/04 02:31:34;;;;;;;2.37;1.40;;;;;;;6.30;74.92;99825.89;125037;1102;103976;-82
2022/01/04 02:34:04;;;;;;;1.47;1.37;;;;;;;6.26;74.78;99821.36;125086;1102;104062;-81
2022/01/04 02:36:36;;;;;;;1.97;1.50;;;;;;;6.22;74.99;99840.32;125188;1102;103922;-82
2022/01/04 02:39:09;;;;;;;4.10;1.43;;;;;;;6.19;75.15;99837.58;125165;1102;105390;-82
2022/01/04 02:41:39;;;;;;;5.63;2.20;;;;;;;6.15;75.00;99838.27;125214;1102;104391;-81
2022/01/04 02:44:08;;;;;;;3.50;2.00;;;;;;;6.13;74.93;99832.11;125158;1102;103926;-81
2022/01/04 02:46:38;;;;;;;2.97;1.70;;;;;;;6.09;75.18;99834.59;125208;1102;104040;-82
2022/01/04 02:49:08;;;;;;;4.33;1.60;;;;;;;6.06;75.22;99847.47;125088;1102;104057;-82
2022/01/04 02:51:38;;;;;;;5.33;1.77;;;;;;;6.04;75.31;99848.22;125149;1102;104432;-82
2022/01/04 02:54:07;;;;;;;4.90;1.80;;;;;;;6.00;75.23;99848.91;125145;1102;104059;-82
2022/01/04 02:56:37;;;;;;;4.07;1.80;;;;;;;5.98;75.38;99848.83;125028;1102;104038;-82
2022/01/04 02:59:07;;;;;;;4.73;1.90;;;;;;;5.96;75.75;99844.37;125205;1102;103989;-82
2022/01/04 03:01:36;;;;;;;3.63;1.97;;;;;;;5.94;75.47;99846.91;125135;1102;103996;-82
2022/01/04 03:04:09;;;;;;;2.20;1.63;;;;;;;5.94;75.68;99854.72;125152;1102;103954;-82
2022/01/04 03:06:40;;;;;;;2.27;1.57;;;;;;;5.90;75.53;99855.39;125191;1102;104047;-82
2022/01/04 03:09:10;;;;;;;3.07;1.53;;;;;;;5.84;75.34;99853.40;125002;1102;103951;-82
2022/01/04 03:11:40;;;;;;;3.60;1.77;;;;;;;5.82;75.89;99857.66;125284;1102;103929;-81
2022/01/04 03:14:09;;;;;;;2.10;1.65;;;;;;;5.79;75.88;99867.94;125146;1102;103960;-82
2022/01/04 03:16:39;;;;;;;2.83;2.00;;;;;;;5.73;76.02;99865.97;125157;1102;103919;-81
2022/01/04 03:19:10;;;;;;;3.17;1.73;;;;;;;5.70;75.64;99873.64;124987;1102;103944;-81
2022/01/04 03:21:42;;;;;;;3.07;1.80;;;;;;;5.66;75.70;99874.31;125214;1102;104083;-82
2022/01/04 03:24:14;;;;;;;2.77;2.00;;;;;;;5.62;75.62;99867.17;125033;1102;104085;-81
2022/01/04 03:26:47;;;;;;;4.37;1.90;;;;;;;5.58;75.82;99857.47;125190;1102;103922;-81
2022/01/04 03:29:17;;;;;;;6.23;3.00;;;;;;;5.55;75.94;99868.62;125139;1101;103970;-82
2022/01/04 03:31:47;;;;;;;4.50;2.40;;;;;;;5.54;75.96;99868.55;125049;1102;104057;-81
2022/01/04 03:34:17;;;;;;;8.10;2.87;;;;;;;5.51;75.67;99871.01;125197;1102;104038;-82
2022/01/04 03:36:51;;;;;;;4.80;2.80;;;;;;;5.49;75.97;99862.25;125040;1102;104037;-82
2022/01/04 03:39:26;;;;;;;;;;;;;;;5.48;75.70;99865.66;125242;1102;103948;-81
2022/01/04 03:41:55;;;;;;;5.80;2.75;;;;;;;5.46;76.06;99864.71;125191;1102;103925;-81
2022/01/04 03:44:26;;;;;;;5.17;2.60;;;;;;;5.42;75.82;99861.05;125050;1102;103929;-81
2022/01/04 03:46:56;;;;;;;4.80;2.47;;;;;;;5.40;76.00;99858.38;124978;1102;104056;-81
2022/01/04 03:49:26;;;;;;;4.07;2.73;;;;;;;5.37;75.92;99873.85;125138;1102;103932;-81
2022/01/04 03:51:56;;;;;;;4.23;2.60;;;;;;;5.36;75.96;99871.18;125215;1102;104143;-82
2022/01/04 03:54:27;;;;;;;5.50;2.70;;;;;;;5.34;76.13;99878.03;125151;1102;103926;-81
2022/01/04 03:56:57;;;;;;;4.07;2.60;;;;;;;5.31;76.24;99868.36;125003;1102;103929;-81
2022/01/04 03:59:27;;;;;;;6.43;3.27;;;;;;;5.30;76.18;99870.89;125089;1102;103934;-82
2022/01/04 04:01:56;;;;;;;5.77;3.37;;;;;;;5.29;75.73;99879.54;125181;1102;103958;-81
2022/01/04 04:04:26;;;;;;;5.17;3.07;;;;;;;5.28;76.23;99881.23;125152;1102;103986;-82
2022/01/04 04:06:56;;;;;;;7.43;3.53;;;;;;;5.28;75.99;99878.63;125216;1102;105089;-82
2022/01/04 04:09:26;;;;;;;8.97;3.50;;;;;;;5.28;76.35;99881.23;125211;1102;104051;-82
2022/01/04 04:11:59;;;;;;;8.27;3.90;;;;;;;5.30;76.57;99879.61;124993;1102;104104;-82
2022/01/04 04:14:29;;;;;;;7.42;3.42;;;;;;;5.35;76.06;99872.02;125233;1102;103977;-82
2022/01/04 04:16:59;;;;;;;6.37;3.43;;;;;;;5.38;76.32;99878.25;125038;1102;104018;-82
2022/01/04 04:19:30;;;;;;;9.30;3.90;;;;;;;5.41;76.28;99877.52;124985;1102;103925;-82
2022/01/04 04:21:59;;;;;;;9.43;4.20;;;;;;;5.46;76.52;99891.61;125211;1102;103947;-82
2022/01/04 04:24:29;;;;;;;10.27;4.43;;;;;;;5.50;76.29;99896.16;125188;1102;104045;-82
2022/01/04 04:27:02;;;;;;;9.15;4.10;;;;;;;5.54;76.73;99891.97;125165;1102;104345;-82
2022/01/04 04:29:33;;;;;;;12.23;4.60;;;;;;;5.57;76.75;99892.98;125159;1102;105361;-82
2022/01/04 04:32:04;;;;;;;10.70;4.50;;;;;;;5.63;76.91;99895.00;125154;1102;103935;-82
2022/01/04 04:34:36;;;;;;;10.77;4.37;;;;;;;5.67;76.75;99896.02;125240;1102;101450;-82
2022/01/04 04:37:06;;;;;;;8.73;4.30;;;;;;;5.70;76.59;99893.55;125225;1102;103935;-82
2022/01/04 04:39:38;;;;;;;7.47;4.00;;;;;;;5.72;77.02;99891.94;125179;1102;104054;-82
2022/01/04 04:42:08;;;;;;;11.97;4.40;;;;;;;5.73;77.27;99897.21;125223;1102;103941;-82
2022/01/04 04:44:38;;;;;;;9.30;4.60;;;;;;;5.75;76.78;99892.95;125123;1102;103926;-82
2022/01/04 04:47:11;;;;;;;12.37;4.33;;;;;;;5.73;77.06;99894.61;125196;1101;103939;-82
2022/01/04 04:49:40;;;;;;;8.03;4.30;;;;;;;5.71;76.81;99896.23;125087;1102;105336;-83
2022/01/04 04:52:12;;;;;;;11.33;4.30;;;;;;;5.72;77.14;99894.54;125204;1102;103960;-82
2022/01/04 04:54:43;;;;;;;9.77;4.53;;;;;;;5.71;76.92;99901.44;125180;1102;103945;-83
2022/01/04 04:57:16;;;;;;;11.27;4.47;;;;;;;5.70;76.63;99897.07;125239;1102;103928;-83
2022/01/04 04:59:46;;;;;;;10.20;4.70;;;;;;;5.67;76.71;99896.93;125168;1101;103964;-83
2022/01/04 05:02:15;;;;;;;11.43;4.87;;;;;;;5.65;76.89;99905.48;125130;1102;103947;-83
2022/01/04 05:04:45;;;;;;;10.90;4.60;;;;;;;5.61;76.92;99912.27;124892;1102;104107;-83
2022/01/04 05:07:14;;;;;;;11.33;4.93;;;;;;;5.57;76.83;99905.12;125026;1102;104144;-83
2022/01/04 05:09:44;;;;;;;11.33;5.10;;;;;;;5.55;76.86;99909.37;125110;1102;104089;-82
2022/01/04 05:12:14;;;;;;;11.23;4.63;;;;;;;5.52;77.06;99912.72;125092;1102;105359;-82
2022/01/04 05:14:46;;;;;;;13.13;5.13;;;;;;;5.51;76.89;99920.45;125078;1102;104096;-83
2022/01/04 05:17:15;;;;;;;15.23;5.17;;;;;;;5.50;76.84;99922.18;125089;1102;103990;-83
2022/01/04 05:19:45;;;;;;;11.67;4.70;;;;;;;5.54;77.36;99928.41;125064;1102;104419;-83
2022/01/04 05:22:15;;;;;;;10.93;4.53;;;;;;;5.58;77.02;99925.14;125011;1102;104356;-82
2022/01/04 05:24:45;;;;;;;12.40;4.67;;;;;;;5.61;77.41;99921.77;125025;1102;103935;-82
2022/01/04 05:27:15;;;;;;;12.63;4.67;;;;;;;5.63;77.21;99917.55;125130;1102;103926;-82
2022/01/04 05:29:44;;;;;;;12.63;4.93;;;;;;;5.65;77.13;99919.38;125136;1102;104054;-81
2022/01/04 05:32:14;;;;;;;14.97;5.10;;;;;;;5.66;77.12;99912.48;125161;1102;103936;-82
2022/01/04 05:34:44;;;;;;;11.63;4.60;;;;;;;5.66;77.35;99915.96;124928;1102;103993;-81
2022/01/04 05:37:14;;;;;;;10.77;4.30;;;;;;;5.68;77.19;99916.91;125232;1102;105057;-81
2022/01/04 05:39:46;;;;;;;13.73;4.50;;;;;;;5.70;77.16;99910.09;125121;1102;104021;-82
2022/01/04 05:42:16;;;;;;;11.13;4.17;;;;;;;5.72;77.16;99918.84;125136;1102;103929;-82
2022/01/04 05:44:45;;;;;;;8.83;4.27;;;;;;;5.75;77.21;99937.21;125121;1102;104523;-80
2022/01/04 05:47:15;;;;;;;10.87;4.67;;;;;;;5.75;77.01;99933.73;124993;1102;104080;-81
2022/01/04 05:49:45;;;;;;;9.43;4.37;;;;;;;5.72;76.96;99928.38;124848;1102;103960;-80
2022/01/04 05:52:15;;;;;;;12.67;4.70;;;;;;;5.70;77.09;99930.91;125109;1102;103928;-79
2022/01/04 05:54:45;;;;;;;10.60;4.23;;;;;;;5.70;76.92;99930.00;125130;1102;104060;-80
2022/01/04 05:57:14;;;;;;;10.37;4.63;;;;;;;5.70;76.78;99930.00;125159;1102;103928;-81
2022/01/04 05:59:44;;;;;;;10.77;3.90;;;;;;;5.71;77.06;99940.48;125138;1102;104020;-81
2022/01/04 06:02:17;;;;;;;13.33;4.50;;;;;;;5.74;76.87;99938.02;125113;1102;103920;-82
2022/01/04 06:04:46;;;;;;;14.80;4.00;;;;;;;5.76;77.12;99938.09;125208;1102;104063;-81
2022/01/04 06:07:16;;;;;;;9.83;3.97;;;;;;;5.79;77.20;99945.16;125188;1102;104111;-83
2022/01/04 06:09:49;;;;;;;12.47;4.33;;;;;;;5.80;76.84;99941.72;124899;1102;103984;-84
2022/01/04 06:15:12;;;;;;;11.37;4.50;;;;;;;5.81;77.17;99953.92;124884;1105;104051;-82
2022/01/04 06:17:46;;;;;;;11.43;4.47;;;;;;;5.82;76.88;99948.78;124916;1102;103932;-83
2022/01/04 06:20:21;;;;;;;13.90;4.57;;;;;;;5.83;77.18;99953.19;125097;1102;104054;-82
2022/01/04 06:22:54;;;;;;;14.77;4.90;;;;;;;5.84;77.10;99943.65;124869;1102;104062;-82
2022/01/04 06:25:25;;;;;;;14.07;4.97;;;;;;;5.86;76.95;99944.60;124936;1102;103935;-82
2022/01/04 06:27:58;;;;;;;13.40;4.37;;;;;;;5.88;76.97;99948.19;124854;1103;103990;-83
2022/01/04 06:30:29;;;;;;;11.30;4.60;;;;;;;5.92;76.94;99950.09;124826;1102;103999;-78
2022/01/04 06:32:58;;;;;;;14.57;4.67;;;;;;;5.97;76.97;99961.66;125022;1102;104028;-80
2022/01/04 06:35:33;;;;;;;13.43;4.77;;;;;;;6.02;76.79;99961.88;125013;1102;103961;-80
2022/01/04 06:38:03;;;;;;;10.93;4.60;;;;;;;6.09;76.82;99967.43;124849;1105;104024;-79
2022/01/04 06:40:35;;;;;;;11.23;4.20;;;;;;;6.18;77.10;99969.53;124795;1102;104027;-82
2022/01/04 06:43:08;;;;;;;10.37;5.00;;;;;;;6.27;76.86;99976.88;125102;1102;104079;-83
2022/01/04 06:45:43;;;;;;;13.80;5.20;;;;;;;6.34;76.88;99984.13;125130;1102;103952;-80
2022/01/04 06:48:14;;;;;;;11.73;4.93;;;;;;;6.40;76.96;99993.95;124995;1101;103987;-81
2022/01/04 06:50:51;;;;;;;14.20;5.57;;;;;;;6.44;76.81;99996.75;124996;1102;103941;-81
2022/01/04 06:53:29;;;;;;;18.73;7.27;;;;;;;6.44;76.88;99993.27;124922;1102;104050;-81
2022/01/04 06:56:09;;;;;;;14.70;6.17;;;;;;;6.44;76.73;99988.94;124820;1103;104002;-82
2022/01/04 06:58:43;;;;;;;18.73;6.97;;;;;;;6.44;76.87;99991.54;124820;1105;103961;-82
2022/01/04 07:01:15;;;;;;;;;;;;;;;6.44;76.73;99994.15;124980;1102;102490;-82
2022/01/04 07:04:07;;;;;;;;;;;;;;;;;;;;;
2022/01/04 07:06:43;;;;;;;22.77;8.97;;;;;;;6.54;76.95;99986.73;125032;1101;104057;-81
2022/01/04 07:09:16;;;;;;;20.03;8.73;;;;;;;6.59;76.98;99995.64;124932;1101;103930;-80
2022/01/04 07:12:03;;;;;;;20.43;9.20;;;;;;;6.64;76.87;99994.14;125014;1102;103989;-81
2022/01/04 07:14:38;;;;;;;18.40;7.60;;;;;;;6.71;76.81;99990.95;125028;1102;104172;-82
2022/01/04 07:17:13;;;;;;;17.50;6.97;;;;;;;6.76;76.58;99996.37;124884;1102;103925;-82
2022/01/04 07:19:46;;;;;;;19.07;6.53;;;;;;;6.81;77.08;99990.53;124977;1102;104487;-81
2022/01/04 07:22:23;;;;;;;16.87;7.07;;;;;;;6.87;77.03;99991.61;125067;1102;103938;-83
2022/01/04 07:24:59;;;;;;;20.17;8.13;;;;;;;6.94;76.92;99988.45;124953;1102;105447;-83
2022/01/04 07:27:35;;;;;;;20.50;6.90;;;;;;;6.99;76.83;99987.80;124999;1102;104159;-82
2022/01/04 07:30:12;;;;;;;22.10;8.05;;;;;;;7.07;76.54;99988.11;124921;1102;103868;-83
2022/01/04 07:32:56;;;;;;;21.00;8.20;;;;;;;7.15;76.84;99984.13;125023;1102;104072;-82
2022/01/04 07:35:38;;;;;;;19.63;8.10;;;;;;;7.25;76.70;99984.50;124983;1102;113354;-81
2022/01/04 07:38:25;;;;;;;19.53;8.13;;;;;;;7.32;76.78;99986.52;125230;1102;103931;-81
2022/01/04 07:41:19;;;;;;;19.20;8.07;;;;;;;7.40;76.27;99990.31;125078;1102;103922;-81
2022/01/04 07:43:58;;;;;;;17.92;6.72;;;;;;;7.49;76.93;99988.07;124911;1103;104003;-80
2022/01/04 07:47:06;;;;;;;14.27;6.80;;;;;;;7.59;76.89;99991.05;124958;1102;103920;-82
2022/01/04 07:49:41;;;;;;;25.20;8.13;;;;;;;7.71;76.49;99991.53;124994;1102;104083;-81
2022/01/04 07:52:17;;;;;;;17.43;7.50;;;;;;;7.80;76.17;100004.95;124901;1105;104513;-81
2022/01/04 07:57:52;;;;;;;12.60;5.43;;;;;;;7.98;75.85;100003.88;125128;1102;103935;-83
2022/01/04 08:01:02;;;;;;;16.37;5.73;;;;;;;8.06;76.23;100008.56;124963;1106;103950;-84
2022/01/04 08:03:48;;;;;;;11.87;4.90;;;;;;;8.16;76.33;99999.34;124871;1105;103977;-81
2022/01/04 08:06:24;;;;;;;9.40;3.97;;;;;;;8.25;76.29;100017.98;124848;1105;104213;-81
2022/01/04 08:09:21;;;;;;;13.87;4.40;;;;;;;8.32;75.89;100015.59;124895;1105;104359;-81
2022/01/04 08:12:00;;;;;;;12.80;4.17;;;;;;;8.42;76.06;100022.95;124931;1105;104213;-81
2022/01/04 08:14:45;;;;;;;8.93;3.77;;;;;;;8.49;76.07;100022.36;124640;1105;103942;-82
2022/01/04 08:17:47;;;;;;;12.33;4.33;;;;;;;8.56;75.64;100013.03;124797;1105;103971;-81
2022/01/04 08:20:42;;;;;;;7.40;3.30;;;;;;;8.66;75.12;100009.02;124847;1102;103932;-81
2022/01/04 08:23:18;;;;;;;7.27;3.27;;;;;;;8.67;74.92;100005.57;124771;1105;104410;-81
2022/01/04 08:25:57;;;;;;;9.50;3.20;;;;;;;8.75;75.61;100022.42;124886;1102;103919;-82
2022/01/04 08:28:36;;;;;;;7.73;3.23;;;;;;;8.81;75.05;100010.44;124874;1103;104028;-81
2022/01/04 08:31:14;;;;;;;7.00;3.10;;;;;;;8.89;75.02;100009.82;125243;1102;102255;-81
2022/01/04 08:33:54;;;;;;;8.47;3.20;;;;;;;8.91;75.07;100008.14;125138;1102;104059;-80
2022/01/04 08:36:41;;;;;;;10.17;3.40;;;;;;;8.97;74.76;100017.08;125073;1102;104053;-81
2022/01/04 08:39:26;;;;;;;8.40;3.30;;;;;;;9.08;74.47;100019.19;125099;1102;103928;-80
2022/01/04 08:42:04;;;;;;;8.50;3.80;;;;;;;9.14;74.52;100024.63;124928;1105;103977;-81
2022/01/04 08:44:58;;;;;;;8.10;3.40;;;;;;;9.21;74.44;100013.53;124941;1105;103963;-78
2022/01/04 08:47:41;;;;;;;7.63;3.70;;;;;;;9.29;74.88;100011.17;124871;1106;103989;-82
2022/01/04 08:50:20;;;;;;;9.80;3.30;;;;;;;9.37;74.77;100016.66;124835;1105;103951;-79
2022/01/04 08:53:11;;;;;;;8.87;3.70;;;;;;;9.44;74.54;100023.86;124904;1105;104093;-80
2022/01/04 08:56:04;;;;;;;8.17;3.40;;;;;;;9.48;73.96;100015.27;124602;1105;103967;-80
2022/01/04 08:58:55;;;;;;;6.72;3.30;;;;;;;9.51;73.54;100013.63;124794;1105;102013;-81
2022/01/04 09:01:50;;;;;;;6.40;3.33;;;;;;;9.55;73.46;100011.99;124752;1106;104676;-81
2022/01/04 09:05:10;;;;;;;6.45;3.10;;;;;;;9.60;72.82;100009.52;124763;1105;102561;-82
2022/01/04 09:07:56;;;;;;;6.33;3.10;;;;;;;9.65;73.50;100003.59;124684;1106;104262;-82
2022/01/04 09:10:27;;;;;;;11.20;3.10;;;;;;;9.73;73.39;99997.72;124881;1105;102316;-80
2022/01/04 09:13:37;;;;;;;6.67;3.13;;;;;;;9.79;73.52;99995.29;124928;1103;103938;-81
2022/01/04 09:19:36;;;;;;;10.08;3.70;;;;;;;9.92;73.77;100000.05;125212;1102;103993;-82
2022/01/04 09:22:21;;;;;;;5.07;3.23;;;;;;;9.96;72.99;99996.69;124882;1105;102073;-82
2022/01/04 09:25:14;;;;;;;9.20;3.67;;;;;;;10.01;73.10;99996.82;124927;1102;104067;-81
2022/01/04 09:28:05;;;;;;;;;;;;;;;;;;;;;
2022/01/04 09:30:44;;;;;;;9.35;3.40;;;;;;;10.11;73.14;99998.85;125044;1102;104880;-79
2022/01/04 09:33:35;;;;;;;9.83;4.07;;;;;;;10.15;71.94;99997.23;124907;1102;104021;-80
2022/01/04 09:36:27;;;;;;;8.90;3.23;;;;;;;10.18;72.39;99999.94;124987;1102;104356;-81
2022/01/04 09:39:10;;;;;;;6.50;3.37;;;;;;;10.19;70.94;99991.21;125125;1102;103929;-80
2022/01/04 09:41:55;;;;;;;8.03;3.37;;;;;;;10.21;71.83;99986.92;124929;1106;103999;-81
2022/01/04 09:44:38;;;;;;;6.30;2.97;;;;;;;10.23;71.36;99985.22;125283;1102;103941;-80
2022/01/04 09:47:17;;;;;;;9.47;2.87;;;;;;;10.28;71.60;99990.60;124977;1105;104015;-82
2022/01/04 09:50:10;;;;;;;;;;;;;;;;;;;;;
2022/01/04 09:52:50;;;;;;;6.43;3.07;;;;;;;10.37;70.98;99983.91;124973;1102;103963;-80
2022/01/04 09:55:53;;;;;;;7.83;3.30;;;;;;;10.37;71.43;99983.91;125161;1102;103983;-81
2022/01/04 09:58:57;;;;;;;7.73;3.33;;;;;;;10.46;71.18;99990.28;124978;1102;103970;-81
2022/01/04 10:01:37;;;;;;;6.60;3.07;;;;;;;10.44;71.54;99982.38;124990;1102;104031;-82
2022/01/04 10:04:27;;;;;;;6.93;2.77;;;;;;;10.38;71.44;99979.58;124897;1103;104066;-82
2022/01/04 10:07:22;;;;;;;4.80;3.07;;;;;;;10.28;70.99;99975.75;124988;1102;104066;-83
2022/01/04 10:10:07;;;;;;;6.57;2.83;;;;;;;10.23;70.41;99967.75;125203;1102;113416;-82
2022/01/04 10:12:59;;;;;;;6.03;2.93;;;;;;;10.25;70.12;99978.28;124942;1102;104005;-84
2022/01/04 10:15:53;;;;;;;4.10;2.60;;;;;;;10.32;70.13;99977.63;124860;1103;104000;-82
2022/01/04 10:18:59;;;;;;;7.33;3.00;;;;;;;10.38;70.27;99961.22;125030;1102;104095;-81
2022/01/04 10:21:46;;;;;;;4.70;2.57;;;;;;;10.46;70.45;99964.05;124885;1102;103993;-80
2022/01/04 10:24:47;;;;;;;4.70;2.53;;;;;;;10.51;69.97;99960.69;124966;1102;104066;-82
2022/01/04 10:27:41;;;;;;;5.70;2.93;;;;;;;10.54;69.33;99959.89;124981;1102;103954;-82
2022/01/04 10:30:26;;;;;;;8.60;3.67;;;;;;;10.57;69.40;99959.98;124959;1105;102883;-82
2022/01/04 10:33:33;;;;;;;6.77;3.07;;;;;;;10.60;69.32;99960.06;124903;1105;104131;-80
2022/01/04 10:36:12;;;;;;;5.83;2.80;;;;;;;10.62;69.04;99953.11;124862;1103;104014;-83
2022/01/04 10:38:49;;;;;;;7.10;3.10;;;;;;;10.65;69.68;99957.56;124733;1102;103990;-81
2022/01/04 10:41:29;;;;;;;6.23;2.70;;;;;;;10.65;69.04;99949.69;125083;1102;104172;-83
2022/01/04 10:44:33;;;;;;;8.07;3.07;;;;;;;10.68;68.93;99944.52;124940;1102;104072;-83
2022/01/04 10:47:30;;;;;;;4.50;2.47;;;;;;;10.69;69.03;99947.19;124824;1102;103904;-82
2022/01/04 10:50:16;;;;;;;8.37;2.87;;;;;;;10.73;68.81;99948.14;124981;1102;104057;-83
2022/01/04 10:52:52;;;;;;;5.17;2.80;;;;;;;10.77;68.87;99943.02;125078;1102;104098;-80
2022/01/04 10:55:38;;;;;;;4.50;2.63;;;;;;;10.83;69.16;99944.02;124817;1105;104098;-80
2022/01/04 10:58:22;;;;;;;6.13;2.50;;;;;;;10.87;68.13;99935.38;125062;1102;104099;-80
2022/01/04 11:01:02;;;;;;;6.33;3.03;;;;;;;10.92;68.41;99934.66;125105;1102;108159;-78
2022/01/04 11:03:48;;;;;;;6.00;2.83;;;;;;;10.98;67.93;99939.16;124967;1102;103949;-82
2022/01/04 11:06:30;;;;;;;4.50;2.50;;;;;;;11.03;68.27;99931.39;124957;1102;103765;-82
2022/01/04 11:09:02;;;;;;;4.93;2.77;;;;;;;11.05;67.98;99934.97;124928;1102;103922;-78
2022/01/04 11:11:33;;;;;;;5.87;2.77;;;;;;;11.07;67.77;99934.14;124831;1102;104073;-80
2022/01/04 11:14:04;;;;;;;7.43;2.83;;;;;;;11.09;67.57;99935.05;124656;1105;103977;-80
2022/01/04 11:16:58;;;;;;;6.90;3.13;;;;;;;11.09;67.50;99929.80;124714;1103;104022;-80
2022/01/04 11:19:29;;;;;;;11.43;3.27;;;;;;;11.08;67.87;99922.80;124726;1103;103935;-81
2022/01/04 11:22:08;;;;;;;6.83;3.30;;;;;;;11.22;67.53;99927.47;124693;1102;104079;-78
2022/01/04 11:24:46;;;;;;;6.30;3.00;;;;;;;11.25;67.16;99923.20;124706;1102;104015;-79
2022/01/04 11:27:22;;;;;;;4.97;2.70;;;;;;;11.30;67.34;99915.44;124644;1105;104146;-79
2022/01/04 11:30:11;;;;;;;10.10;3.33;;;;;;;11.31;67.16;99904.05;124735;1105;104098;-80
2022/01/04 11:32:53;;;;;;;9.77;3.13;;;;;;;11.30;67.57;99904.92;124774;1105;103935;-78
2022/01/04 11:35:26;;;;;;;8.27;3.10;;;;;;;11.29;66.76;99913.64;124606;1105;104102;-78
2022/01/04 11:38:01;;;;;;;6.53;3.23;;;;;;;11.28;66.88;99902.27;124528;1106;103996;-79
2022/01/04 11:40:47;;;;;;;8.63;3.50;;;;;;;11.31;66.75;99893.55;124859;1105;104053;-79
2022/01/04 11:43:34;;;;;;;7.80;3.40;;;;;;;11.29;66.18;99897.89;124741;1105;104362;-78
2022/01/04 11:46:32;;;;;;;10.30;3.70;;;;;;;11.25;64.98;99898.66;124924;1105;105315;-79
2022/01/04 11:49:12;;;;;;;12.83;3.70;;;;;;;11.20;66.18;99902.92;124679;1106;104062;-81
2022/01/04 11:51:47;;;;;;;8.43;4.20;;;;;;;11.15;65.98;99885.31;124954;1106;102925;-79
2022/01/04 11:54:24;;;;;;;11.87;4.37;;;;;;;11.12;65.96;99887.86;124830;1105;104328;-79
2022/01/04 11:56:58;;;;;;;9.23;4.17;;;;;;;11.06;66.02;99885.09;124714;1105;103941;-79
2022/01/04 11:59:37;;;;;;;9.43;3.90;;;;;;;11.04;65.98;99885.92;124916;1106;104134;-79
2022/01/04 12:02:28;;;;;;;8.93;4.17;;;;;;;10.99;65.99;99879.69;124714;1105;105490;-78
2022/01/04 12:05:37;;;;;;;9.47;3.70;;;;;;;10.96;65.86;99878.73;124709;1105;103935;-82
2022/01/04 12:08:26;;;;;;;7.73;3.80;;;;;;;10.94;65.37;99879.58;124989;1105;103961;-82
2022/01/04 12:11:02;;;;;;;;;;;;;;;10.91;65.23;99880.38;124684;1105;103977;-80
2022/01/04 12:13:56;;;;;;;7.57;3.20;;;;;;;10.92;65.72;99876.00;124853;1105;103993;-81
2022/01/04 12:16:39;;;;;;;7.47;3.40;;;;;;;10.91;65.46;99864.63;124874;1105;103972;-81
2022/01/04 12:19:16;;;;;;;6.90;3.50;;;;;;;10.94;65.28;99862.08;124822;1102;101808;-81